createdAt,value
2016-08-24T00:00:50.316Z,0
2016-08-24T00:01:50.250Z,0
2016-08-24T00:02:50.282Z,0
2016-08-24T00:03:50.422Z,0
2016-08-24T00:04:50.414Z,0
2016-08-24T00:05:50.071Z,0
2016-08-24T00:06:50.063Z,0
2016-08-24T00:07:50.299Z,0
2016-08-24T00:08:50.271Z,0
2016-08-24T00:09:51.198Z,0
2016-08-24T00:10:50.473Z,0
2016-08-24T00:11:51.235Z,0
2016-08-24T00:12:50.072Z,0
2016-08-24T00:13:50.236Z,0
2016-08-24T00:14:50.220Z,0
2016-08-24T00:15:50.237Z,0
2016-08-24T00:16:50.214Z,0
2016-08-24T00:17:50.410Z,0
2016-08-24T00:18:50.076Z,0
2016-08-24T00:19:50.075Z,0
2016-08-24T00:20:50.074Z,0
2016-08-24T00:21:50.069Z,0
2016-08-24T00:22:51.704Z,0
2016-08-24T00:23:50.978Z,0
2016-08-24T00:24:51.918Z,0
2016-08-24T00:25:50.272Z,0
2016-08-24T00:26:50.291Z,0
2016-08-24T00:27:49.896Z,0
2016-08-24T00:28:49.902Z,0
2016-08-24T00:29:49.919Z,0
2016-08-24T00:30:49.903Z,0
2016-08-24T00:31:49.914Z,0
2016-08-24T00:32:49.897Z,0
2016-08-24T00:33:49.881Z,0
2016-08-24T00:34:50.938Z,0
2016-08-24T00:35:50.045Z,0
2016-08-24T00:36:49.875Z,0
2016-08-24T00:37:49.856Z,0
2016-08-24T00:38:49.893Z,0
2016-08-24T00:39:49.882Z,0
2016-08-24T00:40:49.863Z,0
2016-08-24T00:41:49.873Z,0
2016-08-24T00:42:50.593Z,0
2016-08-24T00:43:50.569Z,0
2016-08-24T00:44:49.848Z,0
2016-08-24T00:45:49.879Z,0
2016-08-24T00:46:49.846Z,0
2016-08-24T00:47:49.836Z,0
2016-08-24T00:48:49.816Z,0
2016-08-24T00:49:49.825Z,0
2016-08-24T00:50:49.812Z,0
2016-08-24T00:51:50.568Z,0
2016-08-24T00:52:49.807Z,0
2016-08-24T00:53:49.785Z,0
2016-08-24T00:54:49.906Z,0
2016-08-24T00:55:50.960Z,0
2016-08-24T00:56:49.843Z,0
2016-08-24T00:57:49.788Z,0
2016-08-24T00:58:49.802Z,0
2016-08-24T00:59:49.788Z,0
2016-08-24T01:00:49.766Z,0
2016-08-24T01:01:49.748Z,0
2016-08-24T01:02:49.772Z,0
2016-08-24T01:03:49.765Z,0
2016-08-24T01:04:49.739Z,0
2016-08-24T01:05:49.744Z,0
2016-08-24T01:06:49.732Z,0
2016-08-24T01:07:49.739Z,0
2016-08-24T01:08:49.749Z,0
2016-08-24T01:09:50.725Z,0
2016-08-24T01:10:50.247Z,0
2016-08-24T01:11:49.783Z,0
2016-08-24T01:12:49.819Z,0
2016-08-24T01:13:50.306Z,0
2016-08-24T01:14:49.876Z,0
2016-08-24T01:15:49.693Z,0
2016-08-24T01:16:49.713Z,0
2016-08-24T01:17:49.696Z,0
2016-08-24T01:18:49.693Z,0
2016-08-24T01:19:49.687Z,0
2016-08-24T01:20:49.697Z,0
2016-08-24T01:21:49.681Z,0
2016-08-24T01:22:49.987Z,0
2016-08-24T01:23:49.664Z,0
2016-08-24T01:24:49.662Z,0
2016-08-24T01:25:49.649Z,0
2016-08-24T01:26:49.635Z,0
2016-08-24T01:27:49.655Z,0
2016-08-24T01:28:49.666Z,0
2016-08-24T01:29:49.621Z,0
2016-08-24T01:30:50.351Z,0
2016-08-24T01:31:49.610Z,0
2016-08-24T01:32:49.613Z,0
2016-08-24T01:33:49.622Z,0
2016-08-24T01:34:49.610Z,0
2016-08-24T01:35:49.632Z,0
2016-08-24T01:36:49.599Z,0
2016-08-24T01:37:51.508Z,0
2016-08-24T01:38:50.641Z,0
2016-08-24T01:39:49.912Z,0
2016-08-24T01:40:49.576Z,0
2016-08-24T01:41:49.598Z,0
2016-08-24T01:42:49.567Z,0
2016-08-24T01:43:49.589Z,0
2016-08-24T01:44:50.717Z,0
2016-08-24T01:45:50.627Z,0
2016-08-24T01:46:51.489Z,0
2016-08-24T01:47:50.050Z,0
2016-08-24T01:48:49.581Z,0
2016-08-24T01:49:49.545Z,0
2016-08-24T01:50:50.951Z,0
2016-08-24T01:51:50.336Z,0
2016-08-24T01:52:49.537Z,0
2016-08-24T01:53:50.361Z,0
2016-08-24T01:54:49.529Z,0
2016-08-24T01:55:49.522Z,0
2016-08-24T01:56:49.493Z,0
2016-08-24T01:57:49.523Z,0
2016-08-24T01:58:49.507Z,0
2016-08-24T01:59:49.831Z,0
2016-08-24T02:00:49.724Z,0
2016-08-24T02:01:49.557Z,0
2016-08-24T02:02:49.482Z,0
2016-08-24T02:03:50.422Z,0
2016-08-24T02:04:49.482Z,0
2016-08-24T02:05:49.507Z,0
2016-08-24T02:06:49.479Z,0
2016-08-24T02:07:49.476Z,0
2016-08-24T02:08:49.546Z,0
2016-08-24T02:09:49.469Z,0
2016-08-24T02:10:49.452Z,0
2016-08-24T02:11:49.450Z,0
2016-08-24T02:12:50.332Z,0
2016-08-24T02:13:49.437Z,0
2016-08-24T02:14:49.398Z,0
2016-08-24T02:15:49.399Z,0
2016-08-24T02:16:49.448Z,0
2016-08-24T02:17:49.435Z,0
2016-08-24T02:18:49.467Z,0
2016-08-24T02:19:49.412Z,0
2016-08-24T02:20:50.410Z,0
2016-08-24T02:21:50.409Z,0
2016-08-24T02:22:49.554Z,0
2016-08-24T02:23:50.470Z,0
2016-08-24T02:24:49.382Z,0
2016-08-24T02:25:49.567Z,0
2016-08-24T02:26:49.429Z,0
2016-08-24T02:27:49.384Z,0
2016-08-24T02:28:49.460Z,0
2016-08-24T02:29:49.438Z,0
2016-08-24T02:30:49.442Z,0
2016-08-24T02:31:50.685Z,0
2016-08-24T02:32:50.544Z,0
2016-08-24T02:33:49.348Z,0
2016-08-24T02:34:49.344Z,0
2016-08-24T02:35:49.360Z,0
2016-08-24T02:36:49.362Z,0
2016-08-24T02:37:49.448Z,0
2016-08-24T02:38:49.384Z,0
2016-08-24T02:39:50.560Z,0
2016-08-24T02:40:49.374Z,0
2016-08-24T02:41:49.294Z,0
2016-08-24T02:42:49.368Z,0
2016-08-24T02:43:49.675Z,0
2016-08-24T02:44:49.392Z,0
2016-08-24T02:45:49.469Z,0
2016-08-24T02:46:49.302Z,0
2016-08-24T02:47:49.298Z,0
2016-08-24T02:48:49.285Z,0
2016-08-24T02:49:49.384Z,0
2016-08-24T02:50:50.367Z,0
2016-08-24T02:51:49.310Z,0
2016-08-24T02:52:50.392Z,0
2016-08-24T02:53:49.245Z,0
2016-08-24T02:54:49.232Z,0
2016-08-24T02:55:49.342Z,0
2016-08-24T02:56:50.892Z,0
2016-08-24T02:57:49.229Z,0
2016-08-24T02:58:50.019Z,0
2016-08-24T02:59:49.251Z,0
2016-08-24T03:00:49.236Z,0
2016-08-24T03:01:49.239Z,0
2016-08-24T03:02:49.376Z,0
2016-08-24T03:03:49.192Z,0
2016-08-24T03:04:50.322Z,0
2016-08-24T03:05:49.218Z,0
2016-08-24T03:06:49.241Z,0
2016-08-24T03:07:49.879Z,0
2016-08-24T03:08:51.193Z,0
2016-08-24T03:10:04.169Z,0
2016-08-24T03:10:50.125Z,0
2016-08-24T03:11:49.348Z,0
2016-08-24T03:12:50.522Z,0
2016-08-24T03:13:50.478Z,0
2016-08-24T03:14:49.169Z,0
2016-08-24T03:15:49.159Z,0
2016-08-24T03:16:49.131Z,0
2016-08-24T03:17:49.116Z,0
2016-08-24T03:18:50.439Z,0
2016-08-24T03:19:50.496Z,0
2016-08-24T03:20:50.254Z,0
2016-08-24T03:21:49.834Z,0
2016-08-24T03:22:49.122Z,0
2016-08-24T03:23:49.321Z,0
2016-08-24T03:24:49.102Z,0
2016-08-24T03:25:49.202Z,0
2016-08-24T03:26:49.112Z,0
2016-08-24T03:27:50.077Z,0
2016-08-24T03:28:49.906Z,0
2016-08-24T03:29:49.315Z,0
2016-08-24T03:30:50.716Z,0
2016-08-24T03:31:50.624Z,0
2016-08-24T03:32:49.074Z,0
2016-08-24T03:33:49.076Z,0
2016-08-24T03:34:49.198Z,0
2016-08-24T03:35:49.359Z,0
2016-08-24T03:36:49.059Z,0
2016-08-24T03:37:49.025Z,0
2016-08-24T03:38:49.042Z,0
2016-08-24T03:39:49.225Z,0
2016-08-24T03:40:50.834Z,0
2016-08-24T03:41:51.295Z,4
2016-08-24T03:42:50.562Z,0
2016-08-24T03:43:50.353Z,0
2016-08-24T03:44:49.013Z,4
2016-08-24T03:45:50.743Z,0
2016-08-24T03:46:49.317Z,4
2016-08-24T03:47:48.995Z,4
2016-08-24T03:48:49.216Z,8
2016-08-24T03:49:51.258Z,8
2016-08-24T03:50:51.065Z,8
2016-08-24T03:51:51.018Z,8
2016-08-24T03:52:52.041Z,12
2016-08-24T03:53:52.037Z,12
2016-08-24T03:54:48.939Z,16
2016-08-24T03:55:48.948Z,16
2016-08-24T03:56:51.064Z,24
2016-08-24T03:57:50.346Z,24
2016-08-24T03:58:49.991Z,28
2016-08-24T03:59:48.923Z,32
2016-08-24T04:00:48.918Z,36
2016-08-24T04:01:50.177Z,40
2016-08-24T04:02:49.251Z,48
2016-08-24T04:03:50.991Z,52
2016-08-24T04:04:50.636Z,60
2016-08-24T04:05:48.911Z,68
2016-08-24T04:06:48.891Z,76
2016-08-24T04:07:48.923Z,80
2016-08-24T04:08:48.889Z,92
2016-08-24T04:09:48.883Z,100
2016-08-24T04:10:49.712Z,112
2016-08-24T04:11:50.623Z,124
2016-08-24T04:12:48.975Z,132
2016-08-24T04:13:49.249Z,144
2016-08-24T04:14:48.856Z,156
2016-08-24T04:15:48.863Z,168
2016-08-24T04:16:48.840Z,184
2016-08-24T04:17:48.816Z,196
2016-08-24T04:18:48.842Z,208
2016-08-24T04:19:48.848Z,224
2016-08-24T04:20:48.820Z,240
2016-08-24T04:21:48.802Z,252
2016-08-24T04:22:48.828Z,272
2016-08-24T04:23:48.803Z,284
2016-08-24T04:24:48.838Z,304
2016-08-24T04:25:48.781Z,320
2016-08-24T04:26:50.841Z,340
2016-08-24T04:27:48.827Z,356
2016-08-24T04:28:50.336Z,376
2016-08-24T04:29:48.968Z,392
2016-08-24T04:30:48.906Z,412
2016-08-24T04:31:49.605Z,428
2016-08-24T04:32:49.967Z,448
2016-08-24T04:33:49.834Z,464
2016-08-24T04:34:51.629Z,480
2016-08-24T04:35:53.367Z,500
2016-08-24T04:36:48.739Z,516
2016-08-24T04:37:48.778Z,536
2016-08-24T04:38:48.771Z,552
2016-08-24T04:39:48.765Z,568
2016-08-24T04:40:48.789Z,588
2016-08-24T04:41:48.951Z,608
2016-08-24T04:42:48.800Z,624
2016-08-24T04:43:48.718Z,640
2016-08-24T04:44:48.682Z,660
2016-08-24T04:45:48.713Z,676
2016-08-24T04:46:49.551Z,692
2016-08-24T04:47:49.072Z,708
2016-08-24T04:48:49.937Z,724
2016-08-24T04:49:48.768Z,736
2016-08-24T04:50:48.672Z,752
2016-08-24T04:51:49.375Z,768
2016-08-24T04:52:48.645Z,784
2016-08-24T04:53:49.386Z,800
2016-08-24T04:54:49.116Z,816
2016-08-24T04:55:48.689Z,828
2016-08-24T04:56:48.618Z,844
2016-08-24T04:57:48.634Z,856
2016-08-24T04:58:48.749Z,868
2016-08-24T04:59:48.870Z,884
2016-08-24T05:00:49.299Z,896
2016-08-24T05:01:48.666Z,912
2016-08-24T05:02:48.644Z,924
2016-08-24T05:03:49.669Z,936
2016-08-24T05:04:49.439Z,948
2016-08-24T05:05:48.663Z,956
2016-08-24T05:06:48.637Z,968
2016-08-24T05:07:48.564Z,980
2016-08-24T05:08:48.576Z,992
2016-08-24T05:09:50.976Z,1000
2016-08-24T05:10:48.646Z,1012
2016-08-24T05:11:48.597Z,1024
2016-08-24T05:12:48.630Z,1036
2016-08-24T05:13:49.630Z,1044
2016-08-24T05:14:48.631Z,1056
2016-08-24T05:15:48.608Z,1064
2016-08-24T05:16:48.521Z,1072
2016-08-24T05:17:48.569Z,1088
2016-08-24T05:18:48.733Z,1100
2016-08-24T05:19:48.522Z,1108
2016-08-24T05:20:48.608Z,1116
2016-08-24T05:21:48.556Z,1128
2016-08-24T05:22:48.587Z,1136
2016-08-24T05:23:48.551Z,1148
2016-08-24T05:24:48.548Z,1160
2016-08-24T05:25:48.606Z,1168
2016-08-24T05:26:48.586Z,1176
2016-08-24T05:27:49.157Z,1192
2016-08-24T05:28:48.442Z,1200
2016-08-24T05:29:48.458Z,1084
2016-08-24T05:30:48.447Z,1176
2016-08-24T05:31:48.427Z,1192
2016-08-24T05:32:48.434Z,1224
2016-08-24T05:33:48.415Z,1200
2016-08-24T05:34:48.440Z,1252
2016-08-24T05:35:48.427Z,1248
2016-08-24T05:36:48.450Z,1264
2016-08-24T05:37:48.434Z,1276
2016-08-24T05:38:48.399Z,1284
2016-08-24T05:39:49.312Z,1284
2016-08-24T05:40:48.388Z,1296
2016-08-24T05:41:48.746Z,1300
2016-08-24T05:42:48.430Z,1304
2016-08-24T05:43:48.388Z,1312
2016-08-24T05:44:48.409Z,1324
2016-08-24T05:45:48.372Z,1328
2016-08-24T05:46:48.375Z,1332
2016-08-24T05:47:48.501Z,1336
2016-08-24T05:48:48.441Z,1340
2016-08-24T05:49:48.361Z,1344
2016-08-24T05:50:48.347Z,1352
2016-08-24T05:51:48.451Z,1364
2016-08-24T05:52:48.400Z,1364
2016-08-24T05:53:48.633Z,1372
2016-08-24T05:54:48.336Z,1384
2016-08-24T05:55:48.326Z,1384
2016-08-24T05:56:48.314Z,1396
2016-08-24T05:57:48.313Z,1404
2016-08-24T05:58:48.296Z,1408
2016-08-24T05:59:48.342Z,1412
2016-08-24T06:00:48.318Z,1416
2016-08-24T06:01:48.403Z,1416
2016-08-24T06:02:48.364Z,1428
2016-08-24T06:03:48.294Z,1440
2016-08-24T06:04:48.409Z,1448
2016-08-24T06:05:48.310Z,1452
2016-08-24T06:06:48.283Z,1460
2016-08-24T06:07:48.289Z,1472
2016-08-24T06:08:48.257Z,1476
2016-08-24T06:09:48.274Z,1480
2016-08-24T06:10:48.456Z,1488
2016-08-24T06:11:48.252Z,1488
2016-08-24T06:12:48.254Z,1496
2016-08-24T06:13:48.234Z,1500
2016-08-24T06:14:49.032Z,1500
2016-08-24T06:15:49.263Z,1504
2016-08-24T06:16:48.255Z,1512
2016-08-24T06:17:48.938Z,1516
2016-08-24T06:18:48.227Z,1516
2016-08-24T06:19:48.251Z,1520
2016-08-24T06:20:48.236Z,1524
2016-08-24T06:21:48.229Z,1528
2016-08-24T06:22:48.208Z,1536
2016-08-24T06:23:48.218Z,1540
2016-08-24T06:24:48.276Z,1544
2016-08-24T06:25:48.259Z,1548
2016-08-24T06:26:48.198Z,1552
2016-08-24T06:27:48.179Z,1552
2016-08-24T06:28:48.172Z,1564
2016-08-24T06:29:48.210Z,1568
2016-08-24T06:30:48.194Z,1576
2016-08-24T06:31:48.189Z,1584
2016-08-24T06:32:48.265Z,1592
2016-08-24T06:33:48.170Z,1600
2016-08-24T06:34:48.914Z,1608
2016-08-24T06:35:48.176Z,1612
2016-08-24T06:36:48.174Z,1612
2016-08-24T06:37:48.162Z,1616
2016-08-24T06:38:48.144Z,1620
2016-08-24T06:39:48.226Z,1664
2016-08-24T06:40:48.144Z,1876
2016-08-24T06:41:48.159Z,2120
2016-08-24T06:42:48.146Z,5464
2016-08-24T06:43:48.142Z,7208
2016-08-24T06:44:48.869Z,5116
2016-08-24T06:45:48.135Z,5512
2016-08-24T06:46:48.160Z,6084
2016-08-24T06:47:48.207Z,9476
2016-08-24T06:48:48.840Z,15156
2016-08-24T06:49:48.149Z,16768
2016-08-24T06:50:48.151Z,6720
2016-08-24T06:51:48.119Z,2992
2016-08-24T06:52:48.133Z,3528
2016-08-24T06:53:48.105Z,3416
2016-08-24T06:54:48.097Z,3084
2016-08-24T06:55:48.093Z,2856
2016-08-24T06:56:48.090Z,2688
2016-08-24T06:57:48.106Z,2568
2016-08-24T06:58:48.094Z,2472
2016-08-24T06:59:48.078Z,2388
2016-08-24T07:00:48.079Z,2312
2016-08-24T07:01:48.103Z,2248
2016-08-24T07:02:48.082Z,2188
2016-08-24T07:03:48.111Z,2128
2016-08-24T07:04:48.066Z,2096
2016-08-24T07:05:48.105Z,2080
2016-08-24T07:06:48.091Z,2068
2016-08-24T07:07:48.086Z,2052
2016-08-24T07:08:48.078Z,2040
2016-08-24T07:09:48.055Z,2032
2016-08-24T07:10:48.777Z,2024
2016-08-24T07:11:48.094Z,2016
2016-08-24T07:12:48.082Z,2012
2016-08-24T07:13:48.129Z,2004
2016-08-24T07:14:48.056Z,2000
2016-08-24T07:15:48.055Z,1992
2016-08-24T07:16:48.816Z,1988
2016-08-24T07:17:48.078Z,1988
2016-08-24T07:18:48.084Z,1992
2016-08-24T07:19:48.073Z,2000
2016-08-24T07:20:48.766Z,2008
2016-08-24T07:21:48.092Z,2024
2016-08-24T07:22:48.083Z,2040
2016-08-24T07:23:48.076Z,2060
2016-08-24T07:24:48.045Z,2076
2016-08-24T07:25:48.839Z,2092
2016-08-24T07:26:48.070Z,2096
2016-08-24T07:27:48.065Z,2100
2016-08-24T07:28:48.088Z,2104
2016-08-24T07:29:48.067Z,2112
2016-08-24T07:30:48.060Z,2120
2016-08-24T07:31:48.044Z,2128
2016-08-24T07:32:48.068Z,2140
2016-08-24T07:33:48.080Z,2148
2016-08-24T07:34:48.073Z,2160
2016-08-24T07:35:48.062Z,2160
2016-08-24T07:36:48.802Z,2164
2016-08-24T07:37:48.054Z,2168
2016-08-24T07:38:48.058Z,2172
2016-08-24T07:39:48.056Z,2172
2016-08-24T07:40:48.081Z,2172
2016-08-24T07:41:48.101Z,2172
2016-08-24T07:42:48.076Z,2168
2016-08-24T07:43:48.077Z,2164
2016-08-24T07:44:48.081Z,2160
2016-08-24T07:45:48.061Z,2168
2016-08-24T07:46:48.079Z,2168
2016-08-24T07:47:48.073Z,2164
2016-08-24T07:48:48.067Z,2168
2016-08-24T07:49:48.097Z,2184
2016-08-24T07:50:48.065Z,2188
2016-08-24T07:51:48.187Z,2188
2016-08-24T07:52:48.066Z,2192
2016-08-24T07:53:48.064Z,2204
2016-08-24T07:54:48.089Z,2208
2016-08-24T07:55:48.204Z,2212
2016-08-24T07:56:48.086Z,2208
2016-08-24T07:57:48.089Z,2212
2016-08-24T07:58:48.071Z,2216
2016-08-24T07:59:48.315Z,2228
2016-08-24T08:00:48.095Z,2228
2016-08-24T08:01:48.072Z,2236
2016-08-24T08:02:48.086Z,2228
2016-08-24T08:03:48.078Z,2236
2016-08-24T08:04:48.088Z,2240
2016-08-24T08:05:48.088Z,2236
2016-08-24T08:06:48.066Z,2224
2016-08-24T08:07:48.078Z,2220
2016-08-24T08:08:48.079Z,2220
2016-08-24T08:09:48.815Z,2224
2016-08-24T08:10:48.096Z,2228
2016-08-24T08:11:48.106Z,2228
2016-08-24T08:12:48.081Z,2220
2016-08-24T08:13:48.099Z,2212
2016-08-24T08:14:48.091Z,2196
2016-08-24T08:15:48.098Z,2180
2016-08-24T08:16:48.104Z,2168
2016-08-24T08:17:48.087Z,2168
2016-08-24T08:18:48.129Z,2164
2016-08-24T08:19:48.095Z,2164
2016-08-24T08:20:48.112Z,2176
2016-08-24T08:21:48.140Z,2192
2016-08-24T08:22:48.104Z,2200
2016-08-24T08:23:48.106Z,2232
2016-08-24T08:24:48.098Z,2256
2016-08-24T08:25:48.092Z,2264
2016-08-24T08:26:48.814Z,2272
2016-08-24T08:27:48.086Z,2276
2016-08-24T08:28:48.129Z,2292
2016-08-24T08:29:48.178Z,2316
2016-08-24T08:30:48.119Z,2436
2016-08-24T08:31:48.826Z,2696
2016-08-24T08:32:48.145Z,2884
2016-08-24T08:33:48.124Z,2824
2016-08-24T08:34:48.124Z,2612
2016-08-24T08:35:48.131Z,2708
2016-08-24T08:36:48.111Z,2620
2016-08-24T08:37:48.126Z,2504
2016-08-24T08:38:48.915Z,2476
2016-08-24T08:39:48.122Z,2448
2016-08-24T08:40:48.098Z,2412
2016-08-24T08:41:48.141Z,2364
2016-08-24T08:42:48.131Z,2376
2016-08-24T08:43:48.124Z,2408
2016-08-24T08:44:48.134Z,2472
2016-08-24T08:45:48.132Z,2504
2016-08-24T08:46:48.140Z,2504
2016-08-24T08:47:48.145Z,2504
2016-08-24T08:48:48.141Z,2492
2016-08-24T08:49:48.129Z,2452
2016-08-24T08:50:48.148Z,2420
2016-08-24T08:51:48.158Z,2420
2016-08-24T08:52:48.127Z,2420
2016-08-24T08:53:48.166Z,2384
2016-08-24T08:54:48.135Z,2352
2016-08-24T08:55:48.836Z,2308
2016-08-24T08:56:48.143Z,2308
2016-08-24T08:57:48.152Z,2284
2016-08-24T08:58:48.848Z,2256
2016-08-24T08:59:48.162Z,2324
2016-08-24T09:00:48.165Z,2336
2016-08-24T09:01:48.165Z,2408
2016-08-24T09:02:48.151Z,2436
2016-08-24T09:03:48.168Z,2468
2016-08-24T09:04:48.173Z,2480
2016-08-24T09:05:48.150Z,2472
2016-08-24T09:06:48.184Z,2444
2016-08-24T09:07:48.176Z,2428
2016-08-24T09:08:48.226Z,2424
2016-08-24T09:09:48.163Z,2444
2016-08-24T09:10:48.179Z,2480
2016-08-24T09:11:48.183Z,2532
2016-08-24T09:12:48.169Z,2540
2016-08-24T09:13:48.160Z,2496
2016-08-24T09:14:48.208Z,2488
2016-08-24T09:15:48.171Z,2504
2016-08-24T09:16:48.177Z,2500
2016-08-24T09:17:48.198Z,2488
2016-08-24T09:18:48.904Z,2552
2016-08-24T09:19:48.917Z,2864
2016-08-24T09:20:48.183Z,3316
2016-08-24T09:21:48.191Z,3704
2016-08-24T09:22:48.197Z,4012
2016-08-24T09:23:48.193Z,3928
2016-08-24T09:24:48.177Z,3732
2016-08-24T09:25:48.204Z,3624
2016-08-24T09:26:48.219Z,3384
2016-08-24T09:27:48.187Z,3328
2016-08-24T09:28:48.228Z,3308
2016-08-24T09:29:48.352Z,3248
2016-08-24T09:30:48.191Z,3236
2016-08-24T09:31:48.212Z,3308
2016-08-24T09:32:48.253Z,3336
2016-08-24T09:33:48.237Z,3360
2016-08-24T09:34:48.216Z,3340
2016-08-24T09:35:48.217Z,3216
2016-08-24T09:36:48.478Z,2828
2016-08-24T09:37:48.233Z,2644
2016-08-24T09:38:48.211Z,2500
2016-08-24T09:39:48.930Z,2508
2016-08-24T09:40:48.246Z,2452
2016-08-24T09:41:48.244Z,2400
2016-08-24T09:42:48.294Z,2320
2016-08-24T09:43:48.246Z,2220
2016-08-24T09:44:48.249Z,2032
2016-08-24T09:45:48.219Z,2240
2016-08-24T09:46:48.252Z,2448
2016-08-24T09:47:48.244Z,2584
2016-08-24T09:48:48.269Z,2408
2016-08-24T09:49:48.250Z,2392
2016-08-24T09:50:48.252Z,2204
2016-08-24T09:51:48.259Z,2324
2016-08-24T09:52:48.258Z,2440
2016-08-24T09:53:48.228Z,2580
2016-08-24T09:54:48.243Z,2584
2016-08-24T09:55:48.282Z,2452
2016-08-24T09:56:49.007Z,2360
2016-08-24T09:57:48.268Z,2644
2016-08-24T09:58:48.287Z,3352
2016-08-24T09:59:48.393Z,3524
2016-08-24T10:00:48.295Z,3408
2016-08-24T10:01:48.299Z,3248
2016-08-24T10:02:48.304Z,3176
2016-08-24T10:03:48.292Z,2876
2016-08-24T10:04:48.452Z,2632
2016-08-24T10:05:48.320Z,2576
2016-08-24T10:06:48.312Z,2536
2016-08-24T10:07:48.304Z,2476
2016-08-24T10:08:48.538Z,2316
2016-08-24T10:09:48.373Z,2188
2016-08-24T10:10:48.303Z,2132
2016-08-24T10:11:48.328Z,2104
2016-08-24T10:12:48.312Z,2084
2016-08-24T10:13:48.319Z,2064
2016-08-24T10:14:48.363Z,2064
2016-08-24T10:15:48.329Z,2068
2016-08-24T10:16:48.351Z,2072
2016-08-24T10:17:48.310Z,2060
2016-08-24T10:18:48.372Z,2048
2016-08-24T10:19:48.337Z,2060
2016-08-24T10:20:48.325Z,2108
2016-08-24T10:21:48.400Z,2132
2016-08-24T10:22:49.079Z,2172
2016-08-24T10:23:48.392Z,2220
2016-08-24T10:24:49.058Z,2260
2016-08-24T10:25:48.348Z,2268
2016-08-24T10:26:48.335Z,2264
2016-08-24T10:27:48.366Z,2188
2016-08-24T10:28:48.357Z,2120
2016-08-24T10:29:48.439Z,2120
2016-08-24T10:30:48.376Z,2156
2016-08-24T10:31:48.369Z,2140
2016-08-24T10:32:48.365Z,2072
2016-08-24T10:33:48.363Z,2084
2016-08-24T10:34:48.386Z,2096
2016-08-24T10:35:48.355Z,2072
2016-08-24T10:36:48.359Z,2024
2016-08-24T10:37:48.375Z,1992
2016-08-24T10:38:48.360Z,1980
2016-08-24T10:39:48.381Z,1968
2016-08-24T10:40:49.160Z,1968
2016-08-24T10:41:48.375Z,1972
2016-08-24T10:42:48.382Z,1964
2016-08-24T10:43:48.363Z,1952
2016-08-24T10:44:48.432Z,1936
2016-08-24T10:45:48.408Z,1916
2016-08-24T10:46:48.388Z,1904
2016-08-24T10:47:48.370Z,1880
2016-08-24T10:48:48.405Z,1860
2016-08-24T10:49:48.394Z,1844
2016-08-24T10:50:48.413Z,1836
2016-08-24T10:51:48.417Z,1828
2016-08-24T10:52:48.369Z,1828
2016-08-24T10:53:48.379Z,1832
2016-08-24T10:54:48.368Z,1836
2016-08-24T10:55:48.391Z,1844
2016-08-24T10:56:48.377Z,1840
2016-08-24T10:57:49.102Z,1848
2016-08-24T10:58:48.384Z,1848
2016-08-24T10:59:48.398Z,1852
2016-08-24T11:00:48.407Z,1860
2016-08-24T11:01:48.393Z,1868
2016-08-24T11:02:48.386Z,1872
2016-08-24T11:03:48.398Z,1880
2016-08-24T11:04:48.412Z,1880
2016-08-24T11:05:48.408Z,1880
2016-08-24T11:06:48.407Z,1880
2016-08-24T11:07:48.489Z,1884
2016-08-24T11:08:48.615Z,1892
2016-08-24T11:09:48.426Z,1888
2016-08-24T11:10:48.430Z,1884
2016-08-24T11:11:48.441Z,1884
2016-08-24T11:12:48.455Z,1884
2016-08-24T11:13:48.414Z,1880
2016-08-24T11:14:49.140Z,1888
2016-08-24T11:15:48.411Z,1892
2016-08-24T11:16:48.438Z,1900
2016-08-24T11:17:48.446Z,1904
2016-08-24T11:18:48.431Z,1908
2016-08-24T11:19:48.436Z,1900
2016-08-24T11:20:48.466Z,1892
2016-08-24T11:21:48.453Z,1880
2016-08-24T11:22:48.448Z,1876
2016-08-24T11:23:48.433Z,1872
2016-08-24T11:24:48.454Z,1860
2016-08-24T11:25:48.449Z,1848
2016-08-24T11:26:48.446Z,1848
2016-08-24T11:27:48.462Z,1844
2016-08-24T11:28:48.454Z,1840
2016-08-24T11:29:48.532Z,1840
2016-08-24T11:30:48.464Z,1844
2016-08-24T11:31:48.469Z,1848
2016-08-24T11:32:48.482Z,1860
2016-08-24T11:33:48.491Z,1864
2016-08-24T11:34:48.523Z,1868
2016-08-24T11:35:48.476Z,1872
2016-08-24T11:36:48.486Z,1872
2016-08-24T11:37:48.479Z,1872
2016-08-24T11:38:48.478Z,1868
2016-08-24T11:39:48.514Z,1860
2016-08-24T11:40:48.505Z,1852
2016-08-24T11:41:48.537Z,1844
2016-08-24T11:42:48.520Z,1836
2016-08-24T11:43:48.491Z,1832
2016-08-24T11:44:48.631Z,1824
2016-08-24T11:45:48.576Z,1828
2016-08-24T11:46:48.542Z,1816
2016-08-24T11:47:48.551Z,1804
2016-08-24T11:48:48.567Z,1788
2016-08-24T11:49:48.548Z,1776
2016-08-24T11:50:48.621Z,1764
2016-08-24T11:51:48.597Z,1756
2016-08-24T11:52:48.572Z,1744
2016-08-24T11:53:48.552Z,1740
2016-08-24T11:54:49.271Z,1740
2016-08-24T11:55:48.525Z,1736
2016-08-24T11:56:48.561Z,1736
2016-08-24T11:57:48.576Z,1740
2016-08-24T11:58:48.581Z,1740
2016-08-24T11:59:48.580Z,1740
2016-08-24T12:00:49.275Z,1748
2016-08-24T12:01:48.586Z,1752
2016-08-24T12:02:48.575Z,1752
2016-08-24T12:03:49.343Z,1748
2016-08-24T12:04:49.432Z,1752
2016-08-24T12:05:48.597Z,1756
2016-08-24T12:06:48.581Z,1764
2016-08-24T12:07:48.590Z,1768
2016-08-24T12:08:48.599Z,1780
2016-08-24T12:09:48.653Z,1788
2016-08-24T12:10:48.614Z,1784
2016-08-24T12:11:48.630Z,1776
2016-08-24T12:12:49.415Z,1768
2016-08-24T12:13:49.496Z,1768
2016-08-24T12:14:48.600Z,1760
2016-08-24T12:15:48.611Z,1764
2016-08-24T12:16:48.626Z,1764
2016-08-24T12:17:48.671Z,1756
2016-08-24T12:18:49.441Z,1748
2016-08-24T12:19:48.643Z,1736
2016-08-24T12:20:48.617Z,1736
2016-08-24T12:21:48.628Z,1736
2016-08-24T12:22:48.727Z,1732
2016-08-24T12:23:48.682Z,1732
2016-08-24T12:24:48.687Z,1728
2016-08-24T12:25:48.646Z,1728
2016-08-24T12:26:48.622Z,1724
2016-08-24T12:27:48.690Z,1728
2016-08-24T12:28:48.691Z,1732
2016-08-24T12:29:48.762Z,1736
2016-08-24T12:30:48.668Z,1736
2016-08-24T12:31:48.657Z,1736
2016-08-24T12:32:48.664Z,1736
2016-08-24T12:33:48.648Z,1736
2016-08-24T12:34:48.651Z,1732
2016-08-24T12:35:48.645Z,1736
2016-08-24T12:36:48.642Z,1732
2016-08-24T12:37:48.630Z,1732
2016-08-24T12:38:48.639Z,1736
2016-08-24T12:39:48.625Z,1724
2016-08-24T12:40:48.634Z,1732
2016-08-24T12:41:48.632Z,1724
2016-08-24T12:42:49.569Z,1720
2016-08-24T12:43:48.720Z,1716
2016-08-24T12:44:49.563Z,1712
2016-08-24T12:45:48.643Z,1716
2016-08-24T12:46:49.568Z,1716
2016-08-24T12:47:49.443Z,1724
2016-08-24T12:48:48.676Z,1732
2016-08-24T12:49:48.648Z,1740
2016-08-24T12:50:48.653Z,1740
2016-08-24T12:51:48.658Z,1736
2016-08-24T12:52:48.679Z,1736
2016-08-24T12:53:48.664Z,1740
2016-08-24T12:54:48.713Z,1744
2016-08-24T12:55:48.665Z,1748
2016-08-24T12:56:48.662Z,1744
2016-08-24T12:57:48.697Z,1736
2016-08-24T12:58:48.670Z,1736
2016-08-24T12:59:48.684Z,1736
2016-08-24T13:00:48.679Z,1736
2016-08-24T13:01:48.694Z,1732
2016-08-24T13:02:48.682Z,1732
2016-08-24T13:03:48.701Z,1736
2016-08-24T13:04:48.714Z,1736
2016-08-24T13:05:48.715Z,1732
2016-08-24T13:06:48.702Z,1736
2016-08-24T13:07:48.736Z,1736
2016-08-24T13:08:49.676Z,1736
2016-08-24T13:09:48.737Z,1740
2016-08-24T13:10:49.759Z,1748
2016-08-24T13:11:48.742Z,1768
2016-08-24T13:12:48.737Z,1768
2016-08-24T13:13:48.754Z,1768
2016-08-24T13:14:48.751Z,1764
2016-08-24T13:15:48.722Z,1752
2016-08-24T13:16:48.777Z,1744
2016-08-24T13:17:48.780Z,1740
2016-08-24T13:18:48.854Z,1732
2016-08-24T13:19:48.827Z,1728
2016-08-24T13:20:48.767Z,1732
2016-08-24T13:21:48.769Z,1736
2016-08-24T13:22:48.740Z,1740
2016-08-24T13:23:48.763Z,1740
2016-08-24T13:24:48.772Z,1716
2016-08-24T13:25:48.763Z,1736
2016-08-24T13:26:48.767Z,1732
2016-08-24T13:27:49.702Z,1732
2016-08-24T13:28:48.796Z,1736
2016-08-24T13:29:48.842Z,1740
2016-08-24T13:30:48.770Z,1740
2016-08-24T13:31:48.795Z,1740
2016-08-24T13:32:48.828Z,1740
2016-08-24T13:33:48.780Z,1736
2016-08-24T13:34:48.801Z,1736
2016-08-24T13:35:48.782Z,1736
2016-08-24T13:36:48.805Z,1736
2016-08-24T13:37:49.553Z,1740
2016-08-24T13:38:48.821Z,1744
2016-08-24T13:39:48.823Z,1748
2016-08-24T13:40:48.800Z,1748
2016-08-24T13:41:48.859Z,1748
2016-08-24T13:42:48.814Z,1736
2016-08-24T13:43:48.944Z,1736
2016-08-24T13:44:48.865Z,1736